createdAt,value
2022-10-20T00:01:10.643Z,1.45
2022-10-20T00:03:37.688Z,3.35
2022-10-20T00:06:25.378Z,1.15
2022-10-20T00:08:53.553Z,0.35
2022-10-20T00:11:21.905Z,0.73
2022-10-20T00:13:51.732Z,2.88
2022-10-20T00:16:19.085Z,1.90
2022-10-20T00:18:45.704Z,0.70
2022-10-20T00:21:21.290Z,2.75
2022-10-20T00:23:50.236Z,1.58
2022-10-20T00:26:25.780Z,2.42
2022-10-20T00:28:55.775Z,1.40
2022-10-20T00:31:24.188Z,1.25
2022-10-20T00:33:50.978Z,1.55
2022-10-20T00:36:19.860Z,2.35
2022-10-20T00:38:47.218Z,1.85
2022-10-20T00:41:16.489Z,3.45
2022-10-20T00:44:03.321Z,1.25
2022-10-20T00:46:39.062Z,0.75
2022-10-20T00:49:15.877Z,1.63
2022-10-20T00:51:43.162Z,0.47
2022-10-20T00:54:14.445Z,0.50
2022-10-20T00:56:44.371Z,3.65
2022-10-20T00:59:14.595Z,1.27
2022-10-20T01:01:42.675Z,0.60
2022-10-20T01:04:09.748Z,0.57
2022-10-20T01:06:36.429Z,0.50
2022-10-20T01:09:03.660Z,0.70
2022-10-20T01:11:47.220Z,0.75
2022-10-20T01:14:16.733Z,0.40
2022-10-20T01:17:00.148Z,3.10
2022-10-20T01:19:38.480Z,4.32
2022-10-20T01:22:17.421Z,3.83
2022-10-20T01:24:59.452Z,0.73
2022-10-20T01:27:39.257Z,0.63
2022-10-20T01:30:08.056Z,0.77
2022-10-20T01:33:07.693Z,0.80
2022-10-20T01:35:59.784Z,2.38
2022-10-20T01:38:36.342Z,0.50
2022-10-20T01:41:09.131Z,0.98
2022-10-20T01:43:39.476Z,0.47
2022-10-20T01:46:09.820Z,0.43
2022-10-20T01:48:38.756Z,2.92
2022-10-20T01:51:05.423Z,0.73
2022-10-20T01:53:33.327Z,1.00
2022-10-20T01:56:02.071Z,0.50
2022-10-20T01:58:28.616Z,0.60
2022-10-20T02:01:00.217Z,0.85
2022-10-20T02:03:29.441Z,0.60
2022-10-20T02:06:07.879Z,0.80
2022-10-20T02:08:49.471Z,0.47
2022-10-20T02:11:45.179Z,0.60
2022-10-20T02:14:15.758Z,0.60
2022-10-20T02:16:49.593Z,0.57
2022-10-20T02:19:20.964Z,0.47
2022-10-20T02:21:48.859Z,5.65
2022-10-20T02:24:17.632Z,1.10
2022-10-20T02:26:44.654Z,2.25
2022-10-20T02:29:24.947Z,5.22
2022-10-20T02:31:52.111Z,0.90
2022-10-20T02:34:18.696Z,0.68
2022-10-20T02:36:45.481Z,1.10
2022-10-20T02:39:12.681Z,0.52
2022-10-20T02:41:39.308Z,0.50
2022-10-20T02:44:07.931Z,0.60
2022-10-20T02:46:34.528Z,1.25
2022-10-20T02:49:01.147Z,1.05
2022-10-20T02:51:27.703Z,2.83
2022-10-20T02:53:54.936Z,0.63
2022-10-20T02:56:26.461Z,0.50
2022-10-20T02:58:57.525Z,0.50
2022-10-20T03:01:25.393Z,0.85
2022-10-20T03:03:52.076Z,0.55
2022-10-20T03:06:18.647Z,2.85
2022-10-20T03:08:45.285Z,0.85
2022-10-20T03:11:14.060Z,1.10
2022-10-20T03:13:41.025Z,0.55
2022-10-20T03:16:10.296Z,0.60
2022-10-20T03:18:36.855Z,3.38
2022-10-20T03:21:03.848Z,0.60
2022-10-20T03:23:30.513Z,0.70
2022-10-20T03:26:08.256Z,0.57
2022-10-20T03:28:35.011Z,2.78
2022-10-20T03:31:02.029Z,2.45
2022-10-20T03:33:28.644Z,1.00
2022-10-20T03:35:55.216Z,0.60
2022-10-20T03:38:24.156Z,0.93
2022-10-20T03:40:51.826Z,5.78
2022-10-20T03:43:20.623Z,0.60
2022-10-20T03:45:47.311Z,0.60
2022-10-20T03:48:13.927Z,2.63
2022-10-20T03:50:41.948Z,0.50
2022-10-20T03:53:13.831Z,2.25
2022-10-20T03:55:40.436Z,0.65
2022-10-20T03:58:07.074Z,0.65
2022-10-20T04:00:34.134Z,1.45
2022-10-20T04:03:00.771Z,1.05
2022-10-20T04:05:29.367Z,0.50
2022-10-20T04:07:56.005Z,1.38
2022-10-20T04:10:22.590Z,1.23
2022-10-20T04:12:49.249Z,0.60
2022-10-20T04:15:18.549Z,3.72
2022-10-20T04:17:45.299Z,2.28
2022-10-20T04:20:11.957Z,2.15
2022-10-20T04:22:39.097Z,2.42
2022-10-20T04:25:06.207Z,1.90
2022-10-20T04:27:33.791Z,0.60
2022-10-20T04:30:00.506Z,0.68
2022-10-20T04:32:27.127Z,1.25
2022-10-20T04:34:53.727Z,2.47
2022-10-20T04:37:20.366Z,0.60
2022-10-20T04:39:47.243Z,2.10
2022-10-20T04:42:13.892Z,1.13
2022-10-20T04:44:40.525Z,1.58
2022-10-20T04:47:07.079Z,3.13
2022-10-20T04:49:33.680Z,2.55
2022-10-20T04:52:01.305Z,1.55
2022-10-20T04:54:29.143Z,9.52
2022-10-20T04:56:56.503Z,2.95
2022-10-20T04:59:23.177Z,13.20
2022-10-20T05:01:50.393Z,30.73
2022-10-20T05:04:21.944Z,22.90
2022-10-20T05:06:49.957Z,17.25
2022-10-20T05:09:18.780Z,9.63
2022-10-20T05:11:45.577Z,2.33
2022-10-20T05:14:14.236Z,5.60
2022-10-20T05:16:40.840Z,9.70
2022-10-20T05:19:07.568Z,7.05
2022-10-20T05:21:34.340Z,6.18
2022-10-20T05:24:03.059Z,4.00
2022-10-20T05:26:35.073Z,22.52
2022-10-20T05:29:04.467Z,17.55
2022-10-20T05:31:31.426Z,19.25
2022-10-20T05:33:59.353Z,25.42
2022-10-20T05:36:27.420Z,11.35
2022-10-20T05:38:57.469Z,5.50
2022-10-20T05:41:28.805Z,11.50
2022-10-20T05:44:00.857Z,11.50
2022-10-20T05:46:30.453Z,12.48
2022-10-20T05:48:59.218Z,7.10
2022-10-20T05:51:28.981Z,7.75
2022-10-20T05:53:57.013Z,7.95
2022-10-20T05:56:25.635Z,4.95
2022-10-20T05:58:52.212Z,6.53
2022-10-20T06:01:23.912Z,3.78
2022-10-20T06:03:52.763Z,4.22
2022-10-20T06:06:21.929Z,2.83
2022-10-20T06:08:48.924Z,2.88
2022-10-20T06:11:15.875Z,3.70
2022-10-20T06:13:48.470Z,2.83
2022-10-20T06:16:21.577Z,5.15
2022-10-20T06:18:48.697Z,6.05
2022-10-20T06:21:18.266Z,1.45
2022-10-20T06:23:45.579Z,3.17
2022-10-20T06:26:14.875Z,4.57
2022-10-20T06:28:41.664Z,3.22
2022-10-20T06:31:30.416Z,1.60
2022-10-20T06:34:00.852Z,1.75
2022-10-20T06:36:28.285Z,3.33
2022-10-20T06:38:56.713Z,2.22
2022-10-20T06:41:24.493Z,5.07
2022-10-20T06:43:57.892Z,2.15
2022-10-20T06:46:27.775Z,2.03
2022-10-20T06:48:58.626Z,1.65
2022-10-20T06:51:26.176Z,4.72
2022-10-20T06:53:53.859Z,2.33
2022-10-20T06:56:23.844Z,3.85
2022-10-20T06:58:52.612Z,1.15
2022-10-20T07:01:25.238Z,1.70
2022-10-20T07:03:54.859Z,3.13
2022-10-20T07:06:24.436Z,1.10
2022-10-20T07:08:53.844Z,1.58
2022-10-20T07:11:26.065Z,5.18
2022-10-20T07:13:54.938Z,1.30
2022-10-20T07:16:26.198Z,0.85
2022-10-20T07:18:52.913Z,3.80
2022-10-20T07:21:22.445Z,3.53
2022-10-20T07:23:50.712Z,1.67
2022-10-20T07:26:38.092Z,2.08
2022-10-20T07:29:05.180Z,2.13
2022-10-20T07:31:36.413Z,1.77
2022-10-20T07:34:23.412Z,2.65
2022-10-20T07:36:51.116Z,1.55
2022-10-20T07:39:17.755Z,1.50
2022-10-20T07:41:45.666Z,1.02
2022-10-20T07:44:12.767Z,1.60
2022-10-20T07:46:39.487Z,2.85
2022-10-20T07:49:31.430Z,1.35
2022-10-20T07:51:52.804Z,1.52
2022-10-20T07:54:20.228Z,1.77
2022-10-20T07:56:47.048Z,4.03
2022-10-20T07:59:14.298Z,1.77
2022-10-20T08:01:41.405Z,1.20
2022-10-20T08:04:08.119Z,0.95
2022-10-20T08:06:34.870Z,2.03
2022-10-20T08:09:01.659Z,1.52
2022-10-20T08:11:28.363Z,0.98
2022-10-20T08:13:57.800Z,1.20
2022-10-20T08:16:30.064Z,1.05
2022-10-20T08:21:37.538Z,1.15
2022-10-20T08:24:04.232Z,0.80
2022-10-20T08:26:30.814Z,0.95
2022-10-20T08:28:57.455Z,1.10
2022-10-20T08:31:24.145Z,0.68
2022-10-20T08:33:52.945Z,1.75
2022-10-20T08:36:20.637Z,5.07
2022-10-20T08:38:47.190Z,0.75
2022-10-20T08:41:20.299Z,1.75
2022-10-20T08:43:49.365Z,5.72
2022-10-20T08:48:49.452Z,1.42
2022-10-20T08:51:21.893Z,1.55
2022-10-20T08:53:52.407Z,0.55
2022-10-20T08:56:24.861Z,0.70
2022-10-20T08:58:52.098Z,1.45
2022-10-20T09:01:23.106Z,6.05
2022-10-20T09:03:57.653Z,0.75
2022-10-20T09:06:24.834Z,3.72
2022-10-20T09:08:52.543Z,0.40
2022-10-20T09:11:26.191Z,0.52
2022-10-20T09:13:56.153Z,0.65
2022-10-20T09:16:42.111Z,2.65
2022-10-20T09:19:23.604Z,1.40
2022-10-20T09:21:55.095Z,1.55
2022-10-20T09:24:23.028Z,0.80
2022-10-20T09:26:59.204Z,2.03
2022-10-20T09:29:39.095Z,0.90
2022-10-20T09:32:45.477Z,4.55
2022-10-20T09:35:23.094Z,1.02
2022-10-20T09:38:01.505Z,0.43
2022-10-20T09:40:30.780Z,3.50
2022-10-20T09:43:02.487Z,0.35
2022-10-20T09:45:33.026Z,0.35
2022-10-20T09:48:08.014Z,0.73
2022-10-20T09:50:40.562Z,0.30
2022-10-20T09:53:22.704Z,0.60
2022-10-20T09:55:51.078Z,0.65
2022-10-20T09:58:30.381Z,0.47
2022-10-20T10:01:13.439Z,0.30
2022-10-20T10:03:45.983Z,3.95
2022-10-20T10:06:28.276Z,0.50
2022-10-20T10:08:56.582Z,0.32
2022-10-20T10:11:35.723Z,0.25
2022-10-20T10:14:03.607Z,0.98
2022-10-20T10:16:41.665Z,0.32
2022-10-20T10:19:17.467Z,1.20
2022-10-20T10:21:47.773Z,0.20
2022-10-20T10:24:35.445Z,0.55
2022-10-20T10:27:04.432Z,0.38
2022-10-20T10:29:38.501Z,0.50
2022-10-20T10:32:15.716Z,0.30
2022-10-20T10:34:58.912Z,1.75
2022-10-20T10:37:26.983Z,2.28
2022-10-20T10:39:55.473Z,0.65
2022-10-20T10:42:39.445Z,0.30
2022-10-20T10:45:43.655Z,0.20
2022-10-20T10:48:27.293Z,0.40
2022-10-20T10:51:08.912Z,2.03
2022-10-20T10:54:11.692Z,0.30
2022-10-20T10:57:08.041Z,0.20
2022-10-20T10:59:42.713Z,0.40
2022-10-20T11:02:24.437Z,0.20
2022-10-20T11:05:00.134Z,0.40
2022-10-20T11:08:11.341Z,1.70
2022-10-20T11:11:10.136Z,0.45
2022-10-20T11:13:52.957Z,2.28
2022-10-20T11:16:40.593Z,0.77
2022-10-20T11:19:19.257Z,2.30
2022-10-20T11:22:00.280Z,0.55
2022-10-20T11:24:46.099Z,0.20
2022-10-20T11:27:39.195Z,0.40
2022-10-20T11:30:19.682Z,0.65
2022-10-20T11:33:19.092Z,1.17
2022-10-20T11:35:59.044Z,0.40
2022-10-20T11:38:25.609Z,0.25
2022-10-20T11:41:03.146Z,0.43
2022-10-20T11:43:37.363Z,0.20
2022-10-20T11:46:13.291Z,0.30
2022-10-20T11:48:49.210Z,0.82
2022-10-20T11:51:30.630Z,0.20
2022-10-20T11:54:21.552Z,0.38
2022-10-20T11:57:14.436Z,0.20
2022-10-20T12:00:04.574Z,0.20
2022-10-20T12:02:53.100Z,1.80
2022-10-20T12:05:38.287Z,2.28
2022-10-20T12:08:40.458Z,0.63
2022-10-20T12:11:18.113Z,0.30
2022-10-20T12:14:08.376Z,1.27
2022-10-20T12:17:06.416Z,1.23
2022-10-20T12:19:35.346Z,0.32
2022-10-20T12:22:13.846Z,0.20
2022-10-20T12:25:03.540Z,0.65
2022-10-20T12:27:30.785Z,0.68
2022-10-20T12:30:24.535Z,0.32
2022-10-20T12:32:58.478Z,0.73
2022-10-20T12:35:25.036Z,0.57
2022-10-20T12:37:57.660Z,0.43
2022-10-20T12:40:52.857Z,0.40
2022-10-20T12:43:26.282Z,1.25
2022-10-20T12:45:58.944Z,0.30
2022-10-20T12:48:28.363Z,0.63
2022-10-20T12:51:05.312Z,0.40
2022-10-20T12:53:33.416Z,1.48
2022-10-20T12:56:07.095Z,1.40
2022-10-20T12:59:08.325Z,2.63
2022-10-20T13:02:09.065Z,0.40
2022-10-20T13:05:06.643Z,0.57
2022-10-20T13:07:48.612Z,1.45
2022-10-20T13:10:27.250Z,0.50
2022-10-20T13:13:16.510Z,0.40
2022-10-20T13:15:45.357Z,0.63
2022-10-20T13:18:14.556Z,0.63
2022-10-20T13:20:53.633Z,0.45
2022-10-20T13:23:34.060Z,0.30
2022-10-20T13:26:17.064Z,1.17
2022-10-20T13:28:48.755Z,0.40
2022-10-20T13:31:21.033Z,1.40
2022-10-20T13:34:05.777Z,0.85
2022-10-20T13:36:59.595Z,0.60
2022-10-20T13:39:43.919Z,1.23
2022-10-20T13:42:18.938Z,0.77
2022-10-20T13:45:28.532Z,0.80
2022-10-20T13:48:23.401Z,0.40
2022-10-20T13:50:58.871Z,0.40
2022-10-20T13:53:42.385Z,2.92
2022-10-20T13:56:15.981Z,1.42
2022-10-20T13:59:01.820Z,0.80
2022-10-20T14:01:33.840Z,0.70
2022-10-20T14:04:00.445Z,0.38
2022-10-20T14:06:32.271Z,0.73
2022-10-20T14:09:14.127Z,2.03
2022-10-20T14:11:41.045Z,1.55
2022-10-20T14:14:16.560Z,0.70
2022-10-20T14:16:51.812Z,0.55
2022-10-20T14:19:22.185Z,0.77
2022-10-20T14:21:53.382Z,1.85
2022-10-20T14:24:33.216Z,0.40
2022-10-20T14:27:03.161Z,0.45
2022-10-20T14:29:33.101Z,1.70
2022-10-20T14:32:00.414Z,2.05
2022-10-20T14:34:36.613Z,0.73
2022-10-20T14:37:23.595Z,0.77
2022-10-20T14:39:50.763Z,1.33
2022-10-20T14:42:27.938Z,6.30
2022-10-20T14:44:57.585Z,5.07
2022-10-20T14:47:29.074Z,2.33
2022-10-20T14:49:55.774Z,0.82
2022-10-20T14:52:37.285Z,10.27
2022-10-20T14:55:32.208Z,5.07
2022-10-20T14:57:59.312Z,8.15
2022-10-20T15:00:36.669Z,1.88
2022-10-20T15:03:07.128Z,1.95
2022-10-20T15:05:37.215Z,3.22
2022-10-20T15:08:10.420Z,4.32
2022-10-20T15:10:38.340Z,5.15
2022-10-20T15:13:05.005Z,2.75
2022-10-20T15:15:40.437Z,1.08
2022-10-20T15:18:08.976Z,4.43
2022-10-20T15:20:37.596Z,2.05
2022-10-20T15:23:13.626Z,1.67
2022-10-20T15:26:03.276Z,1.75
2022-10-20T15:28:47.459Z,1.17
2022-10-20T15:31:13.983Z,3.05
2022-10-20T15:33:41.603Z,1.92
2022-10-20T15:36:29.805Z,2.75
2022-10-20T15:38:56.845Z,3.15
2022-10-20T15:41:31.442Z,2.05
2022-10-20T15:46:55.682Z,0.88
2022-10-20T15:49:22.604Z,0.60
2022-10-20T15:51:50.660Z,0.95
2022-10-20T15:54:21.592Z,5.07
2022-10-20T15:56:49.440Z,1.40
2022-10-20T15:59:17.472Z,8.40
2022-10-20T16:01:44.100Z,4.90
2022-10-20T16:04:23.652Z,2.13
2022-10-20T16:06:57.784Z,4.50
2022-10-20T16:09:26.031Z,2.03
2022-10-20T16:11:52.700Z,4.10
2022-10-20T16:14:19.247Z,2.70
2022-10-20T16:16:47.897Z,4.72
2022-10-20T16:19:14.455Z,4.18
2022-10-20T16:21:41.590Z,4.18
2022-10-20T16:24:08.549Z,4.63
2022-10-20T16:26:35.260Z,3.15
2022-10-20T16:29:01.863Z,5.25
2022-10-20T16:31:29.479Z,8.57
2022-10-20T16:33:59.144Z,6.70
2022-10-20T16:36:25.760Z,9.15
2022-10-20T16:38:57.352Z,4.25
2022-10-20T16:41:24.271Z,5.18
2022-10-20T16:43:50.863Z,4.07
2022-10-20T16:46:17.489Z,7.03
2022-10-20T16:48:47.652Z,3.42
2022-10-20T16:51:15.847Z,12.25
2022-10-20T16:53:43.965Z,3.22
2022-10-20T16:56:15.167Z,3.55
2022-10-20T16:58:44.829Z,3.75
2022-10-20T17:01:13.855Z,6.30
2022-10-20T17:03:45.967Z,4.53
2022-10-20T17:06:14.484Z,3.70
2022-10-20T17:08:41.423Z,6.22
2022-10-20T17:11:13.930Z,2.17
2022-10-20T17:13:41.440Z,12.55
2022-10-20T17:16:14.249Z,3.63
2022-10-20T17:18:41.196Z,11.15
2022-10-20T17:21:10.644Z,2.28
2022-10-20T17:23:42.660Z,4.05
2022-10-20T17:26:13.614Z,4.28
2022-10-20T17:28:40.343Z,7.20
2022-10-20T17:31:08.907Z,4.38
2022-10-20T17:33:36.962Z,6.00
2022-10-20T17:36:04.263Z,3.90
2022-10-20T17:38:31.628Z,5.15
2022-10-20T17:41:10.180Z,3.92
2022-10-20T17:43:38.817Z,4.40
2022-10-20T17:46:08.892Z,2.28
2022-10-20T17:48:36.713Z,3.30
2022-10-20T17:51:14.672Z,3.47
2022-10-20T17:53:48.067Z,6.30
2022-10-20T17:56:23.274Z,3.63
2022-10-20T17:58:51.507Z,1.30
2022-10-20T18:01:26.638Z,9.50
2022-10-20T18:03:55.941Z,4.47
2022-10-20T18:06:31.210Z,5.82
2022-10-20T18:09:03.301Z,4.38
2022-10-20T18:11:32.546Z,1.48
2022-10-20T18:14:00.158Z,3.47
2022-10-20T18:16:28.869Z,4.32
2022-10-20T18:19:01.456Z,6.10
2022-10-20T18:21:29.561Z,2.47
2022-10-20T18:24:01.066Z,3.10
2022-10-20T18:26:29.411Z,3.67
2022-10-20T18:28:56.018Z,4.82
2022-10-20T18:31:24.761Z,1.75
2022-10-20T18:33:56.404Z,6.20
2022-10-20T18:36:24.555Z,1.90
2022-10-20T18:38:51.584Z,2.10
2022-10-20T18:41:21.432Z,4.25
2022-10-20T18:43:57.000Z,5.97
2022-10-20T18:46:28.803Z,3.50
2022-10-20T18:48:56.092Z,2.08
2022-10-20T18:51:23.508Z,7.93
2022-10-20T18:53:57.673Z,3.80
2022-10-20T18:56:26.821Z,2.22
2022-10-20T18:58:56.233Z,3.50
2022-10-20T19:01:28.177Z,1.52
2022-10-20T19:03:56.817Z,5.28
2022-10-20T19:06:28.080Z,1.50
2022-10-20T19:08:59.886Z,1.02
2022-10-20T19:11:29.568Z,1.52
2022-10-20T19:13:57.244Z,8.07
2022-10-20T19:16:26.285Z,2.53
2022-10-20T19:18:55.405Z,2.63
2022-10-20T19:21:23.662Z,4.03
2022-10-20T19:23:57.012Z,6.55
2022-10-20T19:26:42.260Z,2.53
2022-10-20T19:29:12.483Z,5.95
2022-10-20T19:31:48.732Z,3.55
2022-10-20T19:34:24.579Z,1.98
2022-10-20T19:36:51.342Z,5.88
2022-10-20T19:39:27.343Z,3.28
2022-10-20T19:41:55.594Z,8.52
2022-10-20T19:44:22.379Z,4.30
2022-10-20T19:46:51.765Z,3.53
2022-10-20T19:49:19.649Z,3.22
2022-10-20T19:51:46.299Z,1.92
2022-10-20T19:54:13.204Z,5.72
2022-10-20T19:56:41.203Z,0.88
2022-10-20T19:59:08.445Z,3.50
2022-10-20T20:01:36.012Z,5.65
2022-10-20T20:04:03.768Z,3.20
2022-10-20T20:06:30.632Z,2.20
2022-10-20T20:09:01.014Z,4.60
2022-10-20T20:11:30.996Z,1.73
2022-10-20T20:14:18.511Z,2.92
2022-10-20T20:16:46.383Z,1.50
2022-10-20T20:19:17.039Z,3.78
2022-10-20T20:21:43.786Z,1.58
2022-10-20T20:24:11.988Z,3.83
2022-10-20T20:26:38.642Z,2.10
2022-10-20T20:29:05.508Z,2.97
2022-10-20T20:31:32.578Z,1.30
2022-10-20T20:34:01.211Z,2.22
2022-10-20T20:36:28.819Z,2.53
2022-10-20T20:39:01.321Z,2.92
2022-10-20T20:41:30.280Z,1.95
2022-10-20T20:44:01.005Z,4.72
2022-10-20T20:46:33.203Z,3.28
2022-10-20T20:49:02.205Z,6.20
2022-10-20T20:51:34.045Z,4.07
2022-10-20T20:54:02.807Z,4.18
2022-10-20T20:56:30.322Z,1.70
2022-10-20T20:58:57.004Z,2.25
2022-10-20T21:01:28.709Z,0.70
2022-10-20T21:03:56.594Z,1.55
2022-10-20T21:06:33.114Z,4.50
2022-10-20T21:09:01.685Z,3.67
2022-10-20T21:11:28.491Z,4.78
2022-10-20T21:13:57.512Z,2.78
2022-10-20T21:16:28.430Z,1.65
2022-10-20T21:19:01.363Z,2.90
2022-10-20T21:21:30.535Z,2.42
2022-10-20T21:23:58.058Z,3.55
2022-10-20T21:26:25.531Z,5.25
2022-10-20T21:28:53.153Z,4.95
2022-10-20T21:31:24.252Z,2.28
2022-10-20T21:33:53.226Z,4.38
2022-10-20T21:36:21.676Z,4.50
2022-10-20T21:38:48.777Z,4.60
2022-10-20T21:41:20.784Z,4.07
2022-10-20T21:43:50.797Z,2.08
2022-10-20T21:46:23.607Z,1.65
2022-10-20T21:48:56.372Z,1.40
2022-10-20T21:51:25.467Z,3.42
2022-10-20T21:54:04.335Z,1.20
2022-10-20T21:56:36.233Z,4.05
2022-10-20T21:59:06.513Z,1.27
2022-10-20T22:01:33.470Z,2.63
2022-10-20T22:04:00.271Z,2.35
2022-10-20T22:06:27.933Z,1.50
2022-10-20T22:08:57.794Z,1.48
2022-10-20T22:11:33.141Z,2.25
2022-10-20T22:13:59.870Z,4.88
2022-10-20T22:16:29.521Z,1.02
2022-10-20T22:19:01.929Z,2.50
2022-10-20T22:21:29.752Z,4.78
2022-10-20T22:23:58.425Z,1.25
2022-10-20T22:26:29.785Z,3.15
2022-10-20T22:28:57.781Z,3.38
2022-10-20T22:31:25.607Z,0.93
2022-10-20T22:33:54.315Z,1.35
2022-10-20T22:36:21.334Z,4.72
2022-10-20T22:38:48.362Z,3.03
2022-10-20T22:41:15.313Z,5.15
2022-10-20T22:43:42.153Z,1.95
2022-10-20T22:46:09.022Z,1.60
2022-10-20T22:48:35.986Z,1.73
2022-10-20T22:51:06.519Z,1.63
2022-10-20T22:53:35.270Z,3.58
2022-10-20T22:56:15.726Z,2.63
2022-10-20T22:58:42.773Z,2.83
2022-10-20T23:01:11.885Z,1.55
2022-10-20T23:03:39.376Z,4.20
2022-10-20T23:06:17.064Z,1.95
2022-10-20T23:08:47.017Z,1.50
2022-10-20T23:11:14.837Z,1.60
2022-10-20T23:13:41.681Z,1.60
2022-10-20T23:16:09.049Z,1.77
2022-10-20T23:18:35.833Z,2.40
2022-10-20T23:21:04.921Z,2.65
2022-10-20T23:23:32.753Z,1.10
2022-10-20T23:26:02.221Z,5.80
2022-10-20T23:28:31.213Z,7.97
2022-10-20T23:31:15.348Z,1.52
2022-10-20T23:33:43.628Z,4.00
2022-10-20T23:36:12.113Z,1.98
2022-10-20T23:38:39.023Z,3.58
2022-10-20T23:41:06.383Z,4.38
2022-10-20T23:43:33.447Z,4.22
2022-10-20T23:46:02.851Z,0.95
2022-10-20T23:48:29.627Z,4.05
2022-10-20T23:50:58.787Z,2.58
2022-10-20T23:53:26.308Z,4.30
2022-10-20T23:55:55.996Z,3.60
2022-10-20T23:58:24.000Z,1.95
